Time;durP1;ratioP1;P1;durP2;ratioP2;P2;SDS_P1;SDS_P2;PMS_P1;PMS_P2;Temp;Humidity;BMP_temperature;BMP_pressure;BME280_temperature;BME280_humidity;BME280_pressure;Samples;Min_cycle;Max_cycle;Signal;HPM_P1;HPM_P2
2022/08/08 00:02:05;;;;;;;4.78;2.95;;;19.80;71.20;;;;;;4932777;29;20051;-55
2022/08/08 00:05:11;;;;;;;4.68;2.70;;;19.70;70.90;;;;;;4930592;29;20067;-53
2022/08/08 00:07:45;;;;;;;8.25;2.80;;;19.70;69.70;;;;;;4932454;29;20051;-55
2022/08/08 00:10:48;;;;;;;7.22;2.85;;;19.60;71.00;;;;;;4921003;29;20043;-58
2022/08/08 00:13:30;;;;;;;6.30;3.00;;;19.70;74.20;;;;;;4939523;29;20127;-53
2022/08/08 00:16:25;;;;;;;8.45;2.78;;;19.50;74.90;;;;;;4931703;29;20052;-55
2022/08/08 00:19:10;;;;;;;5.65;2.35;;;19.30;76.00;;;;;;4915208;29;20530;-54
2022/08/08 00:21:40;;;;;;;7.20;3.05;;;19.20;76.50;;;;;;4932161;29;20118;-52
2022/08/08 00:24:21;;;;;;;5.57;2.92;;;19.30;73.90;;;;;;4930527;29;20051;-55
2022/08/08 00:26:56;;;;;;;5.85;2.70;;;19.30;75.00;;;;;;4911989;29;20524;-52
2022/08/08 00:29:26;;;;;;;6.47;2.83;;;19.40;74.10;;;;;;4914975;29;20059;-55
2022/08/08 00:32:33;;;;;;;4.95;2.65;;;19.40;74.90;;;;;;4931125;29;20109;-55
2022/08/08 00:35:37;;;;;;;5.45;2.70;;;19.40;78.10;;;;;;4932663;29;20175;-55
2022/08/08 00:38:07;;;;;;;6.25;2.38;;;19.40;78.80;;;;;;4933922;28;20052;-55
2022/08/08 00:41:18;;;;;;;7.22;2.50;;;19.30;76.00;;;;;;4931536;29;20048;-59
2022/08/08 00:44:31;;;;;;;5.85;2.55;;;19.30;78.30;;;;;;4931286;28;20148;-55
2022/08/08 00:47:14;;;;;;;5.30;2.95;;;19.30;78.10;;;;;;4931835;29;20083;-55
2022/08/08 00:50:14;;;;;;;4.97;3.13;;;19.30;79.20;;;;;;4930304;29;20115;-56
2022/08/08 00:53:15;;;;;;;5.60;2.40;;;19.10;80.60;;;;;;4931471;29;20475;-53
2022/08/08 00:55:59;;;;;;;13.75;3.22;;;19.00;80.70;;;;;;4930919;29;20460;-54
2022/08/08 00:58:32;;;;;;;4.25;2.40;;;18.90;77.80;;;;;;4928882;29;20513;-57
2022/08/08 01:01:23;;;;;;;5.53;2.80;;;18.90;78.70;;;;;;4588701;28;9999864;-54
2022/08/08 01:04:28;;;;;;;4.78;2.90;;;18.90;83.20;;;;;;4931143;29;20515;-54
2022/08/08 01:07:33;;;;;;;6.65;2.50;;;18.90;82.20;;;;;;4930254;29;20051;-53
2022/08/08 01:10:50;;;;;;;8.60;2.90;;;18.80;85.10;;;;;;4931310;29;20051;-55
2022/08/08 01:13:30;;;;;;;6.38;2.60;;;18.90;84.80;;;;;;4930000;29;20290;-52
2022/08/08 01:16:34;;;;;;;4.22;2.90;;;18.80;80.60;;;;;;4930931;29;20074;-50
2022/08/08 01:19:27;;;;;;;4.72;2.95;;;18.70;84.80;;;;;;4911360;29;20056;-55
2022/08/08 01:22:42;;;;;;;5.90;2.55;;;18.60;84.30;;;;;;4931496;29;20060;-53
2022/08/08 01:25:27;;;;;;;9.40;3.03;;;18.50;86.90;;;;;;4931048;29;20135;-58
2022/08/08 01:28:11;;;;;;;4.60;2.53;;;18.40;82.50;;;;;;4922907;29;20523;-53
2022/08/08 01:31:35;;;;;;;8.60;2.50;;;18.40;85.30;;;;;;4930662;29;20058;-55
2022/08/08 01:34:40;;;;;;;6.32;3.00;;;18.30;88.40;;;;;;4947241;28;20047;-55
2022/08/08 01:37:35;;;;;;;4.43;3.03;;;18.20;89.70;;;;;;4928505;29;20495;-55
2022/08/08 01:41:02;;;;;;;7.25;3.08;;;18.10;88.30;;;;;;4931051;29;20059;-55
2022/08/08 01:43:52;;;;;;;4.43;3.15;;;18.20;89.70;;;;;;4920114;29;20100;-55
2022/08/08 01:46:44;;;;;;;5.15;2.85;;;18.20;87.60;;;;;;4929522;29;20065;-55
2022/08/08 01:49:36;;;;;;;8.50;3.90;;;18.20;89.50;;;;;;4930968;29;20051;-54
2022/08/08 01:52:39;;;;;;;8.13;3.08;;;18.10;86.70;;;;;;4929250;29;20047;-55
2022/08/08 01:55:46;;;;;;;6.30;2.30;;;18.00;90.20;;;;;;4912460;29;20051;-55
2022/08/08 01:58:39;;;;;;;5.93;2.95;;;17.80;89.50;;;;;;4927676;29;20052;-56
2022/08/08 02:01:30;;;;;;;4.60;3.00;;;17.90;88.70;;;;;;4929617;29;20052;-54
2022/08/08 02:04:25;;;;;;;4.05;2.33;;;17.90;88.10;;;;;;4929942;29;20392;-55
2022/08/08 02:07:00;;;;;;;4.13;2.35;;;17.80;88.10;;;;;;4930244;29;20048;-56
2022/08/08 02:09:47;;;;;;;5.88;2.20;;;17.80;89.70;;;;;;4930886;29;20062;-55
2022/08/08 02:12:47;;;;;;;;;;;17.80;89.60;;;;;;4930341;29;20082;-54
2022/08/08 02:15:42;;;;;;;8.18;3.05;;;17.80;91.70;;;;;;4929431;29;20017;-53
2022/08/08 02:18:13;;;;;;;5.80;3.53;;;17.60;91.70;;;;;;4924302;29;20067;-55
2022/08/08 02:24:11;;;;;;;3.92;2.78;;;17.60;90.90;;;;;;4929968;29;20055;-55
2022/08/08 02:27:09;;;;;;;3.85;2.63;;;17.60;92.10;;;;;;4933144;28;20062;-54
2022/08/08 02:30:07;;;;;;;7.63;3.80;;;17.70;91.30;;;;;;4931008;29;20070;-55
2022/08/08 02:33:05;;;;;;;3.47;2.45;;;17.50;92.00;;;;;;4919481;29;20054;-52
2022/08/08 02:35:48;;;;;;;9.70;3.55;;;17.50;91.70;;;;;;4934256;29;20085;-55
2022/08/08 02:38:44;;;;;;;4.20;2.88;;;17.50;90.10;;;;;;4934027;29;20059;-55
2022/08/08 02:41:34;;;;;;;4.45;2.88;;;17.50;91.20;;;;;;4933017;29;20051;-55
2022/08/08 02:44:40;;;;;;;14.70;2.92;;;17.50;92.10;;;;;;4933734;29;20057;-56
2022/08/08 02:48:01;;;;;;;4.50;2.90;;;17.30;90.40;;;;;;4934184;29;20067;-55
2022/08/08 02:51:06;;;;;;;4.30;3.10;;;17.20;93.10;;;;;;4933692;29;20099;-55
2022/08/08 02:53:56;;;;;;;6.55;3.30;;;17.20;93.40;;;;;;4933359;29;20094;-53
2022/08/08 02:56:43;;;;;;;4.60;3.13;;;17.20;93.80;;;;;;4933967;29;20052;-57
2022/08/08 02:59:39;;;;;;;9.80;3.42;;;17.20;93.40;;;;;;4932412;29;20052;-55
2022/08/08 03:03:08;;;;;;;12.15;3.50;;;17.10;93.30;;;;;;4915408;29;20040;-56
2022/08/08 03:05:54;;;;;;;11.63;3.40;;;17.10;94.30;;;;;;4940589;29;20052;-54
2022/08/08 03:08:43;;;;;;;6.25;3.33;;;17.10;94.20;;;;;;4933499;29;20521;-56
2022/08/08 03:11:55;;;;;;;4.22;2.88;;;17.20;94.30;;;;;;4933567;29;20055;-53
2022/08/08 03:14:50;;;;;;;8.25;3.83;;;17.20;94.20;;;;;;4933013;29;20052;-52
2022/08/08 03:17:55;;;;;;;6.45;2.97;;;17.20;93.50;;;;;;4932575;29;20058;-55
2022/08/08 03:20:46;;;;;;;4.15;3.08;;;17.20;94.10;;;;;;4932154;29;20125;-55
2022/08/08 03:23:19;;;;;;;10.77;3.30;;;17.00;93.60;;;;;;4933561;29;20048;-55
2022/08/08 03:25:46;;;;;;;7.18;3.75;;;17.00;92.60;;;;;;4931797;29;20139;-53
2022/08/08 03:28:20;;;;;;;4.43;3.08;;;16.90;92.70;;;;;;4932182;29;20105;-55
2022/08/08 03:30:47;;;;;;;8.98;3.03;;;17.00;93.20;;;;;;4932838;29;20047;-56
2022/08/08 03:33:17;;;;;;;5.38;3.30;;;17.00;93.30;;;;;;4933172;29;20455;-54
2022/08/08 03:36:04;;;;;;;4.65;2.92;;;17.00;93.10;;;;;;4932077;29;20048;-52
2022/08/08 03:38:36;;;;;;;5.53;3.55;;;17.00;93.00;;;;;;4933030;29;20059;-53
2022/08/08 03:41:31;;;;;;;9.35;3.25;;;17.00;92.90;;;;;;4918840;29;20147;-55
2022/08/08 03:44:17;;;;;;;4.93;2.90;;;16.80;94.20;;;;;;4932660;29;20776;-53
2022/08/08 03:46:50;;;;;;;6.40;2.67;;;16.70;93.30;;;;;;4932422;29;20135;-55
2022/08/08 03:49:25;;;;;;;5.10;3.53;;;16.60;93.60;;;;;;4933393;29;20143;-55
2022/08/08 03:52:12;;;;;;;4.70;2.97;;;16.60;94.90;;;;;;4929995;28;20047;-54
2022/08/08 03:54:42;;;;;;;6.70;2.97;;;16.50;94.20;;;;;;4931434;29;20054;-56
2022/08/08 03:57:28;;;;;;;6.50;3.25;;;16.50;94.90;;;;;;4929354;29;20515;-54
2022/08/08 04:00:16;;;;;;;6.30;3.42;;;16.50;94.60;;;;;;4931636;29;20048;-55
2022/08/08 04:02:57;;;;;;;7.32;3.22;;;16.50;94.50;;;;;;4930303;29;20055;-53
2022/08/08 04:05:27;;;;;;;5.72;3.60;;;16.60;96.10;;;;;;4932194;29;20063;-55
2022/08/08 04:07:55;;;;;;;5.72;3.75;;;16.60;94.50;;;;;;4932595;29;20511;-52
2022/08/08 04:10:24;;;;;;;6.03;3.20;;;16.60;94.50;;;;;;4932695;29;20428;-51
2022/08/08 04:12:58;;;;;;;5.10;3.05;;;16.60;94.60;;;;;;4932519;29;20074;-55
2022/08/08 04:15:25;;;;;;;5.75;3.15;;;16.60;94.70;;;;;;4932556;29;20082;-51
2022/08/08 04:18:04;;;;;;;7.75;3.25;;;16.60;94.70;;;;;;4929474;29;20387;-54
2022/08/08 04:20:35;;;;;;;7.65;3.50;;;16.60;94.70;;;;;;4932067;29;20046;-54
2022/08/08 04:23:03;;;;;;;5.40;3.00;;;16.60;94.80;;;;;;4931384;29;20047;-54
2022/08/08 04:25:33;;;;;;;4.88;3.30;;;16.50;95.00;;;;;;4931231;29;20088;-54
2022/08/08 04:28:05;;;;;;;7.15;3.45;;;16.50;95.20;;;;;;4915741;29;20531;-54
2022/08/08 04:30:52;;;;;;;5.65;2.97;;;16.40;95.50;;;;;;4932294;29;20048;-56
2022/08/08 04:33:23;;;;;;;6.07;3.55;;;16.40;95.50;;;;;;4930852;29;20534;-54
2022/08/08 04:35:52;;;;;;;6.95;2.90;;;16.30;95.40;;;;;;4932161;29;20048;-55
2022/08/08 04:38:21;;;;;;;6.72;3.80;;;16.20;95.60;;;;;;4931695;29;20503;-55
2022/08/08 04:40:50;;;;;;;4.10;3.13;;;16.20;95.60;;;;;;4932179;29;20098;-52
2022/08/08 04:43:21;;;;;;;4.13;3.17;;;16.20;95.70;;;;;;4931506;29;20052;-54
2022/08/08 04:45:58;;;;;;;5.28;3.25;;;16.30;95.70;;;;;;4932058;29;20499;-55
2022/08/08 04:48:24;;;;;;;5.03;3.17;;;16.30;95.70;;;;;;4931672;29;20052;-55
2022/08/08 04:50:52;;;;;;;7.25;3.60;;;16.30;95.60;;;;;;4895954;29;20052;-55
2022/08/08 04:53:19;;;;;;;4.97;2.83;;;16.30;95.90;;;;;;4926446;29;20205;-54
2022/08/08 04:56:06;;;;;;;6.70;3.53;;;16.30;96.00;;;;;;4932131;28;20054;-55
2022/08/08 04:58:32;;;;;;;9.25;3.20;;;16.20;96.30;;;;;;4931185;29;20055;-53
2022/08/08 05:00:59;;;;;;;6.97;2.83;;;16.10;96.60;;;;;;4930578;29;20083;-53
2022/08/08 05:03:37;;;;;;;10.98;3.13;;;16.10;96.70;;;;;;4931149;29;20058;-52
2022/08/08 05:06:23;;;;;;;29.20;4.93;;;16.20;96.80;;;;;;4932041;28;20048;-52
2022/08/08 05:08:54;;;;;;;5.43;3.90;;;16.20;97.20;;;;;;4931045;29;20107;-54
2022/08/08 05:11:28;;;;;;;16.42;4.30;;;16.10;97.00;;;;;;4930676;29;20146;-54
2022/08/08 05:14:04;;;;;;;13.40;5.60;;;16.10;97.30;;;;;;4931219;29;20060;-51
2022/08/08 05:16:32;;;;;;;6.65;3.10;;;16.10;97.30;;;;;;4931684;29;20713;-52
2022/08/08 05:19:19;;;;;;;8.77;3.53;;;16.00;97.50;;;;;;4931449;28;20050;-52
2022/08/08 05:22:07;;;;;;;4.35;3.22;;;16.20;97.30;;;;;;4928363;29;20062;-54
2022/08/08 05:24:34;;;;;;;5.93;3.35;;;16.20;97.30;;;;;;4930885;29;20560;-55
2022/08/08 05:27:03;;;;;;;4.63;3.35;;;16.30;97.20;;;;;;4929969;29;20052;-54
2022/08/08 05:29:30;;;;;;;8.43;2.97;;;16.40;97.10;;;;;;4930908;29;20056;-51
2022/08/08 05:32:02;;;;;;;5.10;3.25;;;16.40;97.10;;;;;;4931165;29;20114;-52
2022/08/08 05:34:34;;;;;;;6.78;3.20;;;16.40;97.10;;;;;;4930788;29;20058;-52
2022/08/08 05:37:03;;;;;;;12.63;5.05;;;16.50;97.10;;;;;;4931110;29;20071;-51
2022/08/08 05:39:46;;;;;;;5.32;3.25;;;16.50;97.10;;;;;;4929527;29;20059;-52
2022/08/08 05:42:13;;;;;;;9.35;3.33;;;16.60;97.10;;;;;;4929910;29;20110;-54
2022/08/08 05:44:44;;;;;;;7.43;3.70;;;16.60;97.00;;;;;;4930534;29;20150;-54
2022/08/08 05:47:15;;;;;;;6.40;3.60;;;16.60;97.40;;;;;;4929953;29;20079;-54
2022/08/08 05:49:47;;;;;;;9.73;4.10;;;16.60;97.20;;;;;;4930451;29;20103;-55
2022/08/08 05:52:22;;;;;;;6.25;3.72;;;16.60;97.30;;;;;;4930913;29;20423;-53
2022/08/08 05:55:05;;;;;;;6.85;4.03;;;16.70;97.30;;;;;;4929506;29;20091;-57
2022/08/08 05:57:36;;;;;;;10.50;3.55;;;16.80;97.40;;;;;;4930656;29;20058;-58
2022/08/08 06:00:23;;;;;;;5.85;3.58;;;16.90;97.10;;;;;;4930777;29;20061;-56
2022/08/08 06:03:10;;;;;;;11.20;3.90;;;16.90;97.00;;;;;;4929599;29;20044;-54
2022/08/08 06:05:52;;;;;;;9.40;4.90;;;17.10;96.90;;;;;;4934260;29;20058;-54
2022/08/08 06:08:25;;;;;;;9.40;3.78;;;17.10;97.00;;;;;;4934470;29;20051;-54
2022/08/08 06:11:00;;;;;;;3.80;3.28;;;17.20;96.90;;;;;;4932949;29;20051;-55
2022/08/08 06:13:28;;;;;;;9.43;4.80;;;17.30;96.80;;;;;;4934450;28;20127;-54
2022/08/08 06:16:02;;;;;;;19.92;4.22;;;17.40;96.70;;;;;;4934163;29;20487;-55
2022/08/08 06:18:32;;;;;;;7.05;3.60;;;17.50;96.70;;;;;;4934271;29;20051;-56
2022/08/08 06:20:59;;;;;;;5.45;3.22;;;17.60;96.60;;;;;;4933108;29;20138;-56
2022/08/08 06:23:37;;;;;;;7.38;4.05;;;17.60;96.60;;;;;;4934388;29;20056;-56
2022/08/08 06:26:24;;;;;;;11.32;4.03;;;17.70;96.60;;;;;;4934092;29;20559;-55
2022/08/08 06:29:11;;;;;;;12.40;4.35;;;17.80;96.60;;;;;;4933443;29;20241;-55
2022/08/08 06:32:03;;;;;;;9.35;5.22;;;17.80;96.70;;;;;;4914643;29;20056;-56
2022/08/08 06:34:41;;;;;;;7.45;3.55;;;17.80;97.70;;;;;;4932956;29;20102;-54
2022/08/08 06:37:22;;;;;;;9.05;4.18;;;17.90;97.20;;;;;;4904999;29;20130;-52
2022/08/08 06:39:51;;;;;;;13.27;4.88;;;18.00;97.70;;;;;;4917517;29;20059;-56
2022/08/08 06:42:22;;;;;;;11.45;3.83;;;18.10;97.40;;;;;;4917246;29;20059;-54
2022/08/08 06:44:50;;;;;;;8.40;4.68;;;18.00;97.60;;;;;;4933995;29;20122;-55
2022/08/08 06:47:16;;;;;;;9.75;4.13;;;18.10;97.70;;;;;;4932573;29;20075;-53
2022/08/08 06:49:48;;;;;;;7.90;4.18;;;18.20;97.90;;;;;;4932899;29;20130;-55
2022/08/08 06:52:22;;;;;;;16.15;4.38;;;18.30;98.20;;;;;;4933729;29;20055;-56
2022/08/08 06:54:54;;;;;;;12.05;3.58;;;18.40;98.30;;;;;;4933743;29;20095;-56
2022/08/08 06:57:23;;;;;;;9.57;4.53;;;18.50;98.40;;;;;;4933637;29;20139;-55
2022/08/08 06:59:55;;;;;;;10.10;3.97;;;18.60;98.70;;;;;;4933380;29;20143;-54
2022/08/08 07:02:37;;;;;;;8.27;4.20;;;18.60;98.60;;;;;;4932391;29;20047;-56
2022/08/08 07:05:14;;;;;;;10.13;4.00;;;18.60;98.40;;;;;;4928071;29;20051;-55
2022/08/08 07:08:08;;;;;;;7.43;3.75;;;18.70;98.70;;;;;;4931977;29;20051;-55
2022/08/08 07:10:38;;;;;;;9.48;4.30;;;18.80;99.90;;;;;;4932430;29;20107;-58
2022/08/08 07:13:16;;;;;;;10.40;3.78;;;18.90;98.60;;;;;;4933357;29;20051;-55
2022/08/08 07:15:59;;;;;;;6.35;3.97;;;18.90;98.50;;;;;;4931699;29;20102;-52
2022/08/08 07:19:11;;;;;;;16.92;5.07;;;19.00;99.30;;;;;;4913678;29;20143;-54
2022/08/08 07:21:56;;;;;;;8.30;3.42;;;19.10;99.60;;;;;;4931931;29;20082;-51
2022/08/08 07:24:45;;;;;;;4.90;3.13;;;19.10;98.90;;;;;;4932815;29;20445;-52
2022/08/08 07:27:13;;;;;;;9.63;3.85;;;19.20;98.80;;;;;;4933193;29;20047;-55
2022/08/08 07:29:42;;;;;;;12.82;3.70;;;19.20;98.40;;;;;;4933047;29;20393;-53
2022/08/08 07:32:26;;;;;;;13.43;3.92;;;19.30;98.40;;;;;;4931742;29;20055;-55
2022/08/08 07:34:54;;;;;;;11.73;3.97;;;19.40;98.40;;;;;;4932921;29;20058;-54
2022/08/08 07:37:28;;;;;;;8.95;3.25;;;19.50;98.40;;;;;;4931841;29;20050;-52
2022/08/08 07:40:16;;;;;;;13.05;3.78;;;19.50;98.20;;;;;;4932871;28;20107;-52
2022/08/08 07:42:58;;;;;;;8.27;3.80;;;19.70;98.00;;;;;;4932276;29;20147;-51
2022/08/08 07:45:25;;;;;;;10.40;3.67;;;19.70;97.90;;;;;;4931400;29;20055;-53
2022/08/08 07:48:12;;;;;;;6.50;3.50;;;19.80;97.70;;;;;;4932668;29;20146;-52
2022/08/08 07:50:39;;;;;;;9.27;3.17;;;19.90;97.60;;;;;;4933005;29;20071;-55
2022/08/08 07:53:32;;;;;;;14.30;4.07;;;19.90;97.50;;;;;;4931435;29;20241;-53
2022/08/08 07:56:19;;;;;;;14.18;3.40;;;20.00;97.90;;;;;;4926024;29;20047;-57
2022/08/08 07:59:04;;;;;;;6.70;2.87;;;20.00;97.30;;;;;;4917754;29;20051;-56
2022/08/08 08:01:34;;;;;;;7.97;3.53;;;20.00;97.20;;;;;;4931310;29;20097;-53
2022/08/08 08:04:24;;;;;;;9.30;2.92;;;20.20;97.20;;;;;;4917983;29;20645;-55
2022/08/08 08:06:52;;;;;;;8.93;3.33;;;20.30;96.90;;;;;;4932121;29;20047;-56
2022/08/08 08:09:23;;;;;;;8.25;2.88;;;20.40;96.70;;;;;;4930686;29;20055;-54
2022/08/08 08:11:52;;;;;;;8.63;2.97;;;20.50;97.00;;;;;;4930772;29;20095;-53
2022/08/08 08:14:55;;;;;;;9.35;2.85;;;20.50;96.90;;;;;;4921557;29;20067;-55
2022/08/08 08:17:22;;;;;;;7.25;2.80;;;20.50;97.00;;;;;;4931175;29;20055;-54
2022/08/08 08:19:49;;;;;;;19.77;3.22;;;20.60;96.60;;;;;;4931005;29;20091;-54
2022/08/08 08:22:21;;;;;;;5.80;2.20;;;20.60;96.40;;;;;;4930363;29;20157;-54
2022/08/08 08:24:57;;;;;;;12.70;2.90;;;20.70;96.30;;;;;;4931319;29;20403;-56
2022/08/08 08:27:33;;;;;;;9.00;2.40;;;20.80;96.20;;;;;;4929589;29;20507;-54
2022/08/08 08:30:00;;;;;;;7.20;3.88;;;20.80;95.70;;;;;;4930785;29;20143;-55
2022/08/08 08:32:27;;;;;;;13.05;2.42;;;20.80;96.00;;;;;;4931170;29;20051;-56
2022/08/08 08:35:03;;;;;;;4.75;2.47;;;21.00;95.70;;;;;;4930902;29;20063;-54
2022/08/08 08:37:32;;;;;;;11.07;2.58;;;21.00;95.30;;;;;;4931439;29;20495;-54
2022/08/08 08:39:59;;;;;;;7.18;2.05;;;21.00;95.20;;;;;;4931097;29;21446;-56
2022/08/08 08:42:28;;;;;;;6.82;2.70;;;21.00;95.10;;;;;;4931191;29;20063;-52
2022/08/08 08:45:05;;;;;;;9.88;2.33;;;21.10;94.90;;;;;;4914771;29;20044;-54
2022/08/08 08:47:52;;;;;;;6.72;2.28;;;21.20;94.80;;;;;;4931248;29;20143;-56
2022/08/08 08:50:24;;;;;;;4.60;2.45;;;21.20;94.30;;;;;;4587070;28;10000270;-52
2022/08/08 08:53:06;;;;;;;10.18;2.72;;;21.40;93.90;;;;;;4927788;29;20126;-56
2022/08/08 08:55:56;;;;;;;4.90;2.05;;;21.50;93.60;;;;;;4927847;28;20051;-54
2022/08/08 08:58:42;;;;;;;9.40;2.92;;;21.70;92.80;;;;;;4926824;29;20368;-51
2022/08/08 09:01:25;;;;;;;7.43;2.53;;;21.80;93.00;;;;;;4926308;29;20047;-53
2022/08/08 09:03:54;;;;;;;9.05;3.05;;;21.90;92.20;;;;;;4926741;29;20245;-52
2022/08/08 09:06:28;;;;;;;4.10;2.45;;;21.90;92.30;;;;;;4926304;29;20054;-55
2022/08/08 09:09:08;;;;;;;9.05;2.50;;;22.00;92.10;;;;;;4926390;29;20059;-54
2022/08/08 09:11:53;;;;;;;10.40;2.65;;;22.20;91.50;;;;;;4927591;29;20527;-57
2022/08/08 09:14:28;;;;;;;8.43;2.20;;;22.30;91.20;;;;;;4926286;29;20142;-56
2022/08/08 09:16:55;;;;;;;7.93;2.08;;;22.30;90.80;;;;;;4910844;29;20051;-55
2022/08/08 09:19:22;;;;;;;11.45;3.30;;;22.40;90.30;;;;;;4927867;29;20055;-56
2022/08/08 09:22:09;;;;;;;8.10;1.92;;;22.60;90.40;;;;;;4926747;29;20415;-56
2022/08/08 09:24:36;;;;;;;11.35;2.42;;;22.80;90.00;;;;;;4926163;29;20054;-57
2022/08/08 09:27:10;;;;;;;10.90;2.65;;;22.90;88.50;;;;;;4926968;29;20110;-56
2022/08/08 09:30:05;;;;;;;5.60;2.00;;;22.90;86.20;;;;;;4929009;29;20102;-54
2022/08/08 09:32:40;;;;;;;8.02;2.38;;;23.00;82.70;;;;;;4929328;29;20055;-55
2022/08/08 09:35:29;;;;;;;10.30;3.05;;;23.10;82.70;;;;;;4911340;29;20139;-56
2022/08/08 09:38:02;;;;;;;4.65;2.20;;;23.20;83.40;;;;;;4923114;29;20139;-53
2022/08/08 09:40:32;;;;;;;;;;;23.30;82.30;;;;;;4923355;29;20499;-54
2022/08/08 09:43:25;;;;;;;5.18;1.60;;;23.30;80.10;;;;;;4923958;29;20450;-54
2022/08/08 09:46:15;;;;;;;11.32;2.60;;;23.30;80.50;;;;;;4921647;29;20040;-54
2022/08/08 09:48:56;;;;;;;13.50;3.45;;;23.50;80.80;;;;;;4922115;29;20518;-55
2022/08/08 09:51:30;;;;;;;20.48;2.45;;;23.60;79.50;;;;;;4927966;29;20082;-56
2022/08/08 09:54:18;;;;;;;10.52;2.25;;;23.70;78.70;;;;;;4935826;29;20542;-56
2022/08/08 09:57:03;;;;;;;7.65;1.85;;;23.90;76.60;;;;;;4922638;29;20510;-54
2022/08/08 09:59:39;;;;;;;6.28;2.15;;;24.30;75.90;;;;;;4923233;29;20082;-57
2022/08/08 10:02:33;;;;;;;5.57;2.22;;;24.80;72.30;;;;;;4923220;29;20754;-57
2022/08/08 10:05:15;;;;;;;8.18;2.03;;;24.80;69.40;;;;;;4924338;29;20470;-55
2022/08/08 10:07:51;;;;;;;9.20;2.90;;;25.10;67.30;;;;;;4933505;29;20048;-52
2022/08/08 10:10:34;;;;;;;4.57;1.42;;;25.60;69.00;;;;;;4923509;29;20309;-55
2022/08/08 10:13:25;;;;;;;7.63;1.75;;;26.00;66.50;;;;;;4916847;29;20075;-56
2022/08/08 10:16:01;;;;;;;13.57;2.30;;;26.00;60.90;;;;;;4922763;29;20459;-56
2022/08/08 10:18:32;;;;;;;8.82;1.65;;;26.00;64.00;;;;;;4924200;29;20073;-57
2022/08/08 10:21:04;;;;;;;4.65;1.65;;;25.80;62.70;;;;;;4925792;29;20056;-59
2022/08/08 10:23:49;;;;;;;10.77;1.98;;;26.10;62.30;;;;;;4940416;29;20051;-56
2022/08/08 10:26:45;;;;;;;10.52;2.60;;;26.50;62.00;;;;;;4929364;29;20052;-53
2022/08/08 10:29:44;;;;;;;4.13;1.55;;;26.80;61.70;;;;;;4929674;29;20065;-58
2022/08/08 10:32:34;;;;;;;8.52;2.35;;;26.90;58.60;;;;;;4930632;29;20055;-56
2022/08/08 10:35:18;;;;;;;4.20;1.50;;;27.10;59.20;;;;;;4924672;29;20062;-56
2022/08/08 10:38:05;;;;;;;4.35;1.40;;;27.20;57.80;;;;;;4912547;29;20044;-56
2022/08/08 10:40:37;;;;;;;8.23;1.63;;;27.40;60.30;;;;;;4919833;29;20077;-56
2022/08/08 10:43:05;;;;;;;10.63;2.08;;;27.50;59.40;;;;;;4919056;29;20170;-54
2022/08/08 10:45:41;;;;;;;5.28;1.98;;;27.70;59.90;;;;;;4929920;28;20083;-57
2022/08/08 10:48:33;;;;;;;8.82;1.83;;;27.50;56.50;;;;;;4920155;29;20056;-57
2022/08/08 10:51:21;;;;;;;9.23;2.42;;;27.00;58.10;;;;;;4939455;29;20539;-55
2022/08/08 10:53:54;;;;;;;6.90;1.65;;;26.80;59.50;;;;;;4923952;29;20052;-55
2022/08/08 10:56:25;;;;;;;4.35;1.70;;;26.60;59.80;;;;;;4929831;29;20490;-52
2022/08/08 10:59:08;;;;;;;6.32;1.83;;;26.40;60.40;;;;;;4927598;29;20435;-55
2022/08/08 11:01:36;;;;;;;4.05;1.63;;;26.30;60.30;;;;;;4929303;29;20073;-53
2022/08/08 11:04:09;;;;;;;3.63;2.13;;;26.00;61.30;;;;;;4922628;29;20047;-54
2022/08/08 11:06:37;;;;;;;7.97;2.05;;;25.90;61.60;;;;;;4929782;29;20512;-57
2022/08/08 11:09:13;;;;;;;5.22;1.45;;;25.70;61.90;;;;;;4934939;29;20059;-58
2022/08/08 11:11:48;;;;;;;15.82;2.08;;;25.80;62.50;;;;;;4933195;29;20549;-57
2022/08/08 11:14:35;;;;;;;6.00;2.00;;;26.00;62.10;;;;;;4924885;29;20132;-55
2022/08/08 11:17:07;;;;;;;4.07;1.58;;;26.10;62.10;;;;;;4917726;29;20048;-58
2022/08/08 11:19:41;;;;;;;13.82;2.20;;;26.10;62.20;;;;;;4922625;29;20139;-57
2022/08/08 11:22:13;;;;;;;5.47;1.13;;;26.20;61.90;;;;;;4928106;29;20129;-57
2022/08/08 11:24:40;;;;;;;3.63;1.67;;;26.10;62.00;;;;;;4923574;29;20138;-56
2022/08/08 11:27:11;;;;;;;4.45;1.52;;;26.00;62.80;;;;;;4929562;29;20042;-56
2022/08/08 11:29:49;;;;;;;6.13;0.97;;;25.80;62.40;;;;;;4578302;29;10000512;-57
2022/08/08 11:32:39;;;;;;;4.82;1.30;;;25.70;62.80;;;;;;4930893;29;20054;-56
2022/08/08 11:35:11;;;;;;;4.50;1.60;;;25.70;63.40;;;;;;4922229;29;20142;-55
2022/08/08 11:37:58;;;;;;;7.22;1.63;;;25.70;63.30;;;;;;4926525;29;20051;-59
2022/08/08 11:40:45;;;;;;;8.23;1.30;;;25.70;63.80;;;;;;4924999;29;20522;-55
2022/08/08 11:43:18;;;;;;;5.38;1.40;;;25.80;64.00;;;;;;4923993;29;20047;-56
2022/08/08 11:45:48;;;;;;;4.93;1.50;;;25.70;63.50;;;;;;4926126;29;20051;-57
2022/08/08 11:48:35;;;;;;;12.00;1.90;;;25.70;63.80;;;;;;4922969;29;20647;-56
2022/08/08 11:51:04;;;;;;;5.90;2.10;;;25.70;63.80;;;;;;4927478;29;20058;-56
2022/08/08 11:53:50;;;;;;;9.50;1.63;;;25.70;63.70;;;;;;4936084;29;20512;-55
2022/08/08 11:56:31;;;;;;;7.53;1.67;;;25.90;64.00;;;;;;4923838;29;20498;-56
2022/08/08 11:59:06;;;;;;;;;;;26.10;63.70;;;;;;4923563;29;20056;-56
2022/08/08 12:01:35;;;;;;;3.60;1.58;;;26.20;63.10;;;;;;4924589;29;20449;-57
2022/08/08 12:04:03;;;;;;;11.68;2.85;;;26.20;63.30;;;;;;4931956;29;20123;-56
2022/08/08 12:06:33;;;;;;;3.03;1.02;;;26.20;63.50;;;;;;4922763;29;20519;-57
2022/08/08 12:09:07;;;;;;;6.35;1.60;;;26.20;63.40;;;;;;4924413;29;20512;-54
2022/08/08 12:11:38;;;;;;;3.38;1.38;;;26.10;63.60;;;;;;4945876;29;20134;-57
2022/08/08 12:14:05;;;;;;;3.58;1.25;;;26.20;63.30;;;;;;4931528;29;20059;-60
2022/08/08 12:16:46;;;;;;;2.80;1.30;;;26.30;63.00;;;;;;4930438;29;20043;-57
2022/08/08 12:19:15;;;;;;;5.55;1.35;;;26.20;62.40;;;;;;4931521;29;20060;-57
2022/08/08 12:22:06;;;;;;;5.40;1.42;;;26.20;62.80;;;;;;4921392;29;20518;-55
2022/08/08 12:24:43;;;;;;;2.53;1.08;;;26.40;62.00;;;;;;4922659;29;20652;-57
2022/08/08 12:27:19;;;;;;;7.45;1.13;;;26.40;61.10;;;;;;4934071;29;20106;-59
2022/08/08 12:29:57;;;;;;;9.32;1.73;;;26.50;61.90;;;;;;4922618;29;20142;-56
2022/08/08 12:32:24;;;;;;;2.83;1.17;;;26.60;61.10;;;;;;4935084;29;20147;-57
2022/08/08 12:34:57;;;;;;;5.47;0.80;;;26.80;61.30;;;;;;4928882;29;20056;-56
2022/08/08 12:37:44;;;;;;;9.48;1.27;;;26.90;60.00;;;;;;4928739;29;20055;-55
2022/08/08 12:40:52;;;;;;;5.60;0.88;;;26.90;60.30;;;;;;4920834;29;20126;-55
2022/08/08 12:43:28;;;;;;;2.50;1.10;;;26.90;60.00;;;;;;4927922;29;20055;-56
2022/08/08 12:46:16;;;;;;;2.67;0.70;;;27.00;60.10;;;;;;4929002;29;20539;-55
2022/08/08 12:48:57;;;;;;;3.83;0.88;;;27.10;60.20;;;;;;4928588;29;20142;-56
2022/08/08 12:51:49;;;;;;;6.45;1.23;;;27.20;59.40;;;;;;4927538;29;20058;-58
2022/08/08 12:54:44;;;;;;;4.13;0.82;;;27.30;59.70;;;;;;4928305;29;20047;-56
2022/08/08 12:57:19;;;;;;;6.15;1.25;;;27.40;58.60;;;;;;4927926;29;20134;-55
2022/08/08 12:59:52;;;;;;;3.70;1.00;;;27.50;59.00;;;;;;4928128;29;20055;-54
2022/08/08 13:02:40;;;;;;;4.05;0.98;;;27.60;59.10;;;;;;4928304;29;20139;-57
2022/08/08 13:05:19;;;;;;;2.88;0.90;;;27.70;58.20;;;;;;4927134;29;20099;-56
2022/08/08 13:08:14;;;;;;;1.42;0.68;;;27.70;58.20;;;;;;4928170;29;20055;-54
2022/08/08 13:10:53;;;;;;;4.60;1.10;;;27.80;57.50;;;;;;4928173;29;20052;-56
2022/08/08 13:13:29;;;;;;;1.95;0.90;;;27.80;57.50;;;;;;4926279;29;20083;-57
2022/08/08 13:16:33;;;;;;;5.22;1.17;;;27.90;57.20;;;;;;4925492;29;20083;-55
2022/08/08 13:19:01;;;;;;;4.43;1.45;;;27.80;56.20;;;;;;4929926;28;20066;-55
2022/08/08 13:21:45;;;;;;;2.78;0.90;;;27.70;57.00;;;;;;4921126;29;20106;-57
2022/08/08 13:24:29;;;;;;;2.28;0.80;;;27.70;56.70;;;;;;4925873;28;20534;-55
2022/08/08 13:27:15;;;;;;;4.60;0.82;;;27.80;57.10;;;;;;4921224;29;20118;-59
2022/08/08 13:29:47;;;;;;;1.30;0.63;;;28.00;56.40;;;;;;4923371;29;20056;-54
2022/08/08 13:32:16;;;;;;;2.75;0.90;;;28.30;55.90;;;;;;4923255;29;20176;-58
2022/08/08 13:34:50;;;;;;;3.42;1.17;;;28.40;56.10;;;;;;4920081;28;20130;-58
2022/08/08 13:37:18;;;;;;;9.75;1.45;;;28.50;56.00;;;;;;4918261;29;20054;-58
2022/08/08 13:40:05;;;;;;;3.83;1.42;;;28.60;55.90;;;;;;4920039;29;20139;-57
2022/08/08 13:42:33;;;;;;;7.75;0.90;;;28.70;56.00;;;;;;4924897;29;20059;-57
2022/08/08 13:45:01;;;;;;;4.70;0.90;;;28.70;55.60;;;;;;4924525;29;20460;-57
2022/08/08 13:47:30;;;;;;;2.42;1.15;;;28.70;55.70;;;;;;4919476;29;20067;-57
2022/08/08 13:50:07;;;;;;;2.22;0.85;;;28.50;55.60;;;;;;4933144;29;20111;-57
2022/08/08 13:52:54;;;;;;;2.97;1.10;;;28.40;54.80;;;;;;4920403;29;20049;-56
2022/08/08 13:55:22;;;;;;;5.65;1.17;;;28.40;55.50;;;;;;4931560;29;20486;-56
2022/08/08 13:58:02;;;;;;;1.60;0.80;;;28.50;55.60;;;;;;4917200;29;20444;-57
2022/08/08 14:00:40;;;;;;;2.08;0.98;;;28.60;55.00;;;;;;4928421;29;21072;-57